Latest Weather Observations for Mount Baw Baw

IDV60801

Issued at 5:02 pm EDT Wednesday 7 December 2022 (issued every 10 minutes, with the page automatically refreshed every 10 minutes)

About weather observations | Map of weather stations | Latest weather observations for VIC | Other Formats
Station Details ID: 085291 Name: MOUNT BAW BAW Lat: -37.84 Lon: 146.27 Height: 1561.0 m
Data from the previous 72 hours. | See also: Recent months at Mount Baw Baw
Date/Time
EDT
Temp
°C
App
Temp
°C
Dew
Point
°C
Rel
Hum
%
Delta-T
°C
Wind Press
QNH
hPa
Press
MSL
hPa
Rain since
9am
mm
Dir  Spd
km/h
Gust
km/h
Spd
kts
Gust
kts
07/05:00pm 5.5 0.9 5.5 100 0.0 WSW 19 26 10 14 - - 0.0
07/04:30pm 5.7 1.1 5.7 100 0.0 WSW 19 26 10 14 - - 0.0
07/04:00pm 6.3 2.2 6.3 100 0.0 WSW 17 24 9 13 - - 0.0
07/03:30pm 6.6 3.0 6.6 100 0.0 SW 15 30 8 16 - - 0.0
07/03:00pm 7.1 3.6 7.1 100 0.0 SW 15 24 8 13 - - 0.0
07/02:30pm 7.5 4.4 7.1 97 0.2 WSW 13 24 7 13 - - 0.0
07/02:00pm 7.5 4.4 7.4 99 0.1 SW 13 26 7 14 - - 0.0
07/01:30pm 8.0 4.5 7.2 95 0.4 WSW 15 24 8 13 - - 0.0
07/01:00pm 8.5 5.2 6.5 87 1.0 WSW 13 24 7 13 - - 0.0
07/12:30pm 8.2 4.5 4.4 77 1.8 WSW 13 20 7 11 - - 0.0
07/12:00pm 8.9 4.4 4.1 72 2.3 WSW 17 28 9 15 - - 0.0
07/11:30am 9.1 5.3 4.1 71 2.4 W 13 26 7 14 - - 0.0
07/11:00am 9.4 5.4 5.0 74 2.2 W 15 22 8 12 - - 0.0
07/10:30am 8.4 4.3 4.4 76 1.9 W 15 28 8 15 - - 0.0
07/10:00am 8.8 4.1 3.2 68 2.6 W 17 30 9 16 - - 0.0
07/09:30am 9.7 5.3 4.9 72 2.4 W 17 32 9 17 - - 0.0
07/09:00am 8.8 4.6 3.6 70 2.5 W 15 33 8 18 - - 0.4
07/08:30am 8.4 3.7 3.3 70 2.4 W 17 28 9 15 - - 0.4
07/08:00am 7.7 2.4 2.0 67 2.6 W 19 33 10 18 - - 0.4
07/07:30am 7.2 2.1 2.9 74 2.0 W 19 37 10 20 - - 0.4
07/07:00am 6.9 2.2 3.2 77 1.7 W 17 28 9 15 - - 0.4
07/06:30am 6.6 2.2 2.7 76 1.8 W 15 26 8 14 - - 0.4
07/06:00am 6.5 1.7 2.8 77 1.7 WSW 17 24 9 13 - - 0.4
07/05:30am 6.1 1.3 2.7 79 1.5 WSW 17 24 9 13 - - 0.4
07/05:00am 6.3 1.5 2.8 78 1.6 WSW 17 28 9 15 - - 0.4
07/04:30am 5.9 1.3 3.6 85 1.1 WSW 17 24 9 13 - - 0.4
07/04:00am 6.0 1.1 2.3 77 1.7 WSW 17 28 9 15 - - 0.4
07/03:30am 5.5 1.0 4.3 92 0.6 WSW 17 24 9 13 - - 0.4
07/03:00am 5.4 0.9 4.2 92 0.6 WSW 17 22 9 12 - - 0.4
07/02:30am 5.3 0.8 4.0 91 0.6 WSW 17 24 9 13 - - 0.4
07/02:00am 5.2 0.6 3.7 90 0.7 WSW 17 22 9 12 - - 0.4
07/01:30am 4.9 0.6 3.1 88 0.8 WSW 15 24 8 13 - - 0.4
07/01:00am 4.6 -0.1 1.1 78 1.5 WSW 15 20 8 11 - - 0.4
07/12:30am 4.4 0.1 1.3 80 1.3 WSW 13 19 7 10 - - 0.4
07/12:00am 4.1 -0.1 1.8 85 1.0 WSW 13 17 7 9 - - 0.4
 
Date/Time
EDT
Temp
°C
App
Temp
°C
Dew
Point
°C
Rel
Hum
%
Delta-T
°C
Wind Press
QNH
hPa
Press
MSL
hPa
Rain since
9am
mm
Dir  Spd
km/h
Gust
km/h
Spd
kts
Gust
kts
06/11:30pm 4.2 0.1 2.4 88 0.8 WSW 13 20 7 11 - - 0.4
06/11:00pm 4.5 0.2 3.0 90 0.7 WSW 15 24 8 13 - - 0.4
06/10:30pm 4.6 0.5 2.1 84 1.1 W 13 19 7 10 - - 0.4
06/10:00pm 3.9 1.4 3.6 98 0.1 WNW 6 9 3 5 - - 0.4
06/09:30pm 4.4 1.8 4.1 98 0.1 WSW 7 13 4 7 - - 0.4
06/09:00pm 5.1 2.6 5.0 99 0.0 SSW 7 15 4 8 - - 0.4
06/08:30pm 5.2 2.4 5.1 99 0.0 SW 9 13 5 7 - - 0.4
06/08:00pm 5.6 2.4 5.2 97 0.2 SSW 11 15 6 8 - - 0.4
06/07:30pm 5.8 2.9 4.8 93 0.5 SW 9 15 5 8 - - 0.4
06/07:00pm 6.4 2.7 4.4 87 1.0 SSW 13 19 7 10 - - 0.4
06/06:30pm 7.0 3.2 4.1 82 1.4 SW 13 20 7 11 - - 0.4
06/06:00pm 7.6 4.3 4.7 82 1.4 SW 11 19 6 10 - - 0.4
06/05:30pm 7.4 3.6 3.8 78 1.7 SW 13 19 7 10 - - 0.4
06/05:00pm 8.0 5.2 5.1 82 1.4 SSW 9 17 5 9 - - 0.4
06/04:30pm 7.4 3.5 3.6 77 1.8 SW 13 19 7 10 - - 0.4
06/04:00pm 8.2 4.6 5.0 80 1.6 SW 13 20 7 11 - - 0.4
06/03:30pm 8.4 4.5 5.5 82 1.4 SW 15 20 8 11 - - 0.4
06/03:00pm 6.7 3.3 4.0 83 1.3 SW 11 15 6 8 - - 0.4
06/02:30pm 8.4 4.8 5.2 80 1.6 SW 13 20 7 11 - - 0.4
06/02:00pm 8.0 4.8 6.8 92 0.6 SSW 13 22 7 12 - - 0.4
06/01:30pm 7.9 4.9 7.5 97 0.2 SW 13 22 7 12 - - 0.4
06/01:00pm 7.4 4.7 7.4 100 0.0 SW 11 20 6 11 - - 0.2
06/12:30pm 6.6 3.3 6.6 100 0.0 SSW 13 20 7 11 - - 0.2
06/12:00pm 4.7 1.4 4.7 100 0.0 SSW 11 17 6 9 - - 0.2
06/11:30am 5.3 1.8 5.3 100 0.0 SSW 13 20 7 11 - - 0.2
06/11:00am 4.7 1.8 4.7 100 0.0 SSW 9 13 5 7 - - 0.2
06/10:30am 4.8 2.3 4.8 100 0.0 SSE 7 11 4 6 - - 0.2
06/10:00am 3.6 0.5 3.6 100 0.0 SSE 9 15 5 8 - - 0.2
06/09:30am 4.2 1.8 4.2 100 0.0 ESE 6 9 3 5 - - 0.2
06/09:00am 3.8 1.1 3.8 100 0.0 SE 7 13 4 7 - - 12.2
06/08:30am 3.4 0.8 3.4 100 0.0 ESE 6 13 3 7 - - 12.2
06/08:00am 3.3 0.5 3.3 100 0.0 ESE 7 13 4 7 - - 12.2
06/07:30am 3.1 0.3 3.1 100 0.0 E 7 13 4 7 - - 12.2
06/07:00am 3.0 0.2 3.0 100 0.0 ESE 7 13 4 7 - - 12.0
06/06:30am 3.0 0.2 3.0 100 0.0 E 7 11 4 6 - - 12.0
06/06:00am 3.1 0.3 3.1 100 0.0 E 7 13 4 7 - - 12.0
06/05:30am 3.1 0.9 3.1 100 0.0 SE 4 9 2 5 - - 12.0
06/05:00am 3.2 0.0 3.2 100 0.0 E 9 13 5 7 - - 12.0
06/04:30am 3.2 0.0 3.2 100 0.0 E 9 15 5 8 - - 12.0
06/04:00am 3.2 0.0 3.2 100 0.0 E 9 15 5 8 - - 12.0
06/03:30am 3.2 0.0 3.2 100 0.0 E 9 15 5 8 - - 12.0
06/03:00am 3.7 0.6 3.7 100 0.0 ENE 9 15 5 8 - - 12.0
06/02:30am 3.9 0.9 3.9 100 0.0 E 9 17 5 9 - - 12.0
06/02:00am 4.1 1.1 4.1 100 0.0 E 9 15 5 8 - - 12.0
06/01:30am 4.3 1.7 4.3 100 0.0 ESE 7 11 4 6 - - 12.0
06/01:00am 4.4 1.8 4.4 100 0.0 E 7 13 4 7 - - 12.0
06/12:30am 4.5 2.0 4.5 100 0.0 E 7 13 4 7 - - 12.0
06/12:00am 4.5 1.6 4.5 100 0.0 E 9 15 5 8 - - 11.8
 
Date/Time
EDT
Temp
°C
App
Temp
°C
Dew
Point
°C
Rel
Hum
%
Delta-T
°C
Wind Press
QNH
hPa
Press
MSL
hPa
Rain since
9am
mm
Dir  Spd
km/h
Gust
km/h
Spd
kts
Gust
kts
05/11:30pm 4.7 1.8 4.7 100 0.0 SE 9 17 5 9 - - 11.8
05/11:00pm 4.7 2.2 4.7 100 0.0 SSE 7 13 4 7 - - 11.8
05/10:30pm 4.6 2.1 4.6 100 0.0 SSE 7 15 4 8 - - 11.4
05/10:00pm 4.4 1.5 4.4 100 0.0 S 9 11 5 6 - - 11.2
05/09:30pm 4.2 -0.3 4.2 100 0.0 SSW 17 26 9 14 - - 10.8
05/09:00pm 4.2 -0.3 4.2 100 0.0 SW 17 26 9 14 - - 8.6
05/08:30pm 4.2 -0.9 4.2 100 0.0 SW 20 32 11 17 - - 7.6
05/08:00pm 4.2 -0.7 4.2 100 0.0 SW 19 30 10 16 - - 6.8
05/07:30pm 4.3 -1.1 4.3 100 0.0 SW 22 39 12 21 - - 5.4
05/07:00pm 4.3 -1.5 4.3 100 0.0 SW 24 39 13 21 - - 4.0
05/06:30pm 4.3 -1.5 4.3 100 0.0 SW 24 39 13 21 - - 3.6
05/06:08pm 4.3 -2.3 4.3 100 0.0 SW 28 46 15 25 - - 3.4
05/06:00pm 4.2 -3.2 4.2 100 0.0 SW 32 46 17 25 - - 3.4
05/05:32pm 4.4 -2.2 4.4 100 0.0 SW 28 46 15 25 - - 3.2
05/05:30pm 4.4 -1.8 4.4 100 0.0 SW 26 46 14 25 - - 3.2
05/05:00pm 4.5 -2.4 4.5 100 0.0 SW 30 50 16 27 - - 2.8
05/04:30pm 4.7 -3.1 4.7 100 0.0 SW 35 59 19 32 - - 2.8
05/04:03pm 4.7 -3.1 4.7 100 0.0 SW 35 54 19 29 - - 2.8
05/04:00pm 4.5 -3.0 4.5 100 0.0 SW 33 50 18 27 - - 2.8
05/03:31pm 4.5 -2.4 4.5 100 0.0 SW 30 50 16 27 - - 2.8
05/03:30pm 4.7 -1.8 4.7 100 0.0 SW 28 43 15 23 - - 2.8
05/03:10pm 4.5 -2.8 4.5 100 0.0 SW 32 50 17 27 - - 2.8
05/03:00pm 4.5 -2.8 4.5 100 0.0 SW 32 46 17 25 - - 2.8
05/02:30pm 4.0 -3.0 4.0 100 0.0 WSW 30 50 16 27 - - 2.6
05/02:15pm 4.3 -3.0 4.3 100 0.0 WSW 32 50 17 27 - - 2.6
05/02:00pm 4.1 -2.9 4.1 100 0.0 SW 30 46 16 25 - - 2.6
05/01:32pm 4.5 -2.8 4.5 100 0.0 SW 32 50 17 27 - - 2.4
05/01:30pm 4.4 -2.9 4.4 100 0.0 SW 32 46 17 25 - - 2.4
05/01:00pm 4.3 -3.0 4.3 100 0.0 WSW 32 48 17 26 - - 2.4
05/12:37pm 5.4 -1.0 5.4 100 0.0 WSW 28 46 15 25 - - 1.6
05/12:30pm 5.3 -0.7 5.3 100 0.0 WSW 26 39 14 21 - - 1.4
05/12:00pm 6.0 -0.2 6.0 100 0.0 SW 28 44 15 24 - - 0.6
05/11:44am 6.0 -0.2 6.0 100 0.0 WSW 28 46 15 25 - - 0.4
05/11:30am 6.1 -0.5 6.1 100 0.0 WSW 30 43 16 23 - - 0.4
05/11:00am 6.1 0.3 6.1 100 0.0 WSW 26 41 14 22 - - 0.2
05/10:30am 6.0 1.3 6.0 100 0.0 WSW 20 33 11 18 - - 0.2
05/10:00am 6.1 1.4 6.1 100 0.0 WSW 20 32 11 17 - - 0.0
05/09:30am 7.0 3.8 7.0 100 0.0 WSW 13 26 7 14 - - 0.0
05/09:00am 6.9 3.7 6.9 100 0.0 W 13 22 7 12 - - 0.0
05/08:30am 7.3 4.2 7.3 100 0.0 W 13 20 7 11 - - 0.0
05/08:00am 7.6 3.8 7.6 100 0.0 WSW 17 28 9 15 - - 0.0
05/07:30am 7.5 3.1 7.5 100 0.0 WSW 20 39 11 21 - - 0.0
05/07:00am 8.3 4.5 7.7 96 0.3 WSW 17 24 9 13 - - 0.0
05/06:30am 8.5 5.7 8.5 100 0.0 WNW 13 24 7 13 - - 0.0
05/06:00am 7.3 3.4 7.3 100 0.0 SW 17 24 9 13 - - 0.0
05/05:30am 7.2 3.1 6.0 92 0.6 SW 17 24 9 13 - - 0.0
05/05:00am 9.1 5.1 4.7 74 2.2 SW 15 20 8 11 - - 0.0
05/04:30am 13.9 10.9 7.7 66 3.3 NW 13 24 7 13 - - 0.0
05/04:00am 13.8 10.9 8.0 68 3.1 NNW 13 28 7 15 - - 0.0
05/03:30am 13.8 11.3 8.2 69 3.0 WNW 11 20 6 11 - - 0.0
05/03:00am 14.3 11.3 7.8 65 3.5 NNW 13 24 7 13 - - 0.0
05/02:30am 15.1 12.0 7.4 60 4.1 N 13 30 7 16 - - 0.0
05/02:00am 15.1 11.8 7.9 62 3.9 N 15 28 8 15 - - 0.0
05/01:30am 15.3 11.6 8.1 62 3.9 N 17 30 9 16 - - 0.0
05/01:00am 15.3 11.6 8.1 62 3.9 N 17 30 9 16 - - 0.0
05/12:30am 15.6 12.3 8.1 61 4.1 N 15 26 8 14 - - 0.0
05/12:00am 15.8 12.6 8.3 61 4.1 N 15 32 8 17 - - 0.0
 
Date/Time
EDT
Temp
°C
App
Temp
°C
Dew
Point
°C
Rel
Hum
%
Delta-T
°C
Wind Press
QNH
hPa
Press
MSL
hPa
Rain since
9am
mm
Dir  Spd
km/h
Gust
km/h
Spd
kts
Gust
kts
04/11:30pm 15.8 12.5 8.1 60 4.2 N 15 28 8 15 - - 0.0
04/11:00pm 15.7 13.6 8.4 62 4.0 NNE 9 20 5 11 - - 0.0
04/10:30pm 15.7 13.4 9.1 65 3.7 N 11 26 6 14 - - 0.0
04/10:00pm 15.7 13.5 9.4 66 3.5 NNE 11 19 6 10 - - 0.0
04/09:30pm 15.9 14.0 8.9 63 3.9 NNE 9 15 5 8 - - 0.0
04/09:00pm 15.9 14.0 8.9 63 3.9 N 9 17 5 9 - - 0.0
04/08:30pm 16.2 14.3 8.9 62 4.1 NNE 9 13 5 7 - - 0.0
04/08:00pm 16.6 14.7 9.1 61 4.2 N 9 17 5 9 - - 0.0
04/07:30pm 17.2 15.4 8.1 55 5.0 N 7 13 4 7 - - 0.0
04/07:00pm 19.3 17.4 8.9 51 5.9 WNW 9 20 5 11 - - 0.0
04/06:30pm 18.3 16.5 9.6 57 5.0 NNW 9 17 5 9 - - 0.0
04/06:00pm 20.5 18.8 9.7 50 6.2 WNW 9 17 5 9 - - 0.0
04/05:30pm 18.9 17.0 9.1 53 5.6 NNW 9 17 5 9 - - 0.0

Other formats

Comma delimited format used in spreadsheet applications
http://www.bom.gov.au/fwo/IDV60801/IDV60801.95901.axf

JavaScript Object Notation format (JSON) in row-major order
http://www.bom.gov.au/fwo/IDV60801/IDV60801.95901.json

Data quality

Most of these data are generated automatically and are frequently updated. Quality checks on data are not normally performed. It is possible for incorrect values to appear. Refer to information at About Latest Weather Observations and please check the disclaimer before using these data.